createdAt,value
2018-10-17T08:37:33.956Z,47.60
2018-10-17T08:38:33.493Z,47.79
2018-10-17T08:39:33.498Z,47.67
2018-10-17T08:40:33.433Z,47.79
2018-10-17T08:41:33.387Z,47.99
2018-10-17T08:42:33.336Z,47.79
2018-10-17T08:43:33.284Z,47.79
2018-10-17T08:44:33.247Z,47.99
2018-10-17T08:45:33.164Z,48.29
2018-10-17T08:46:33.094Z,48.39
2018-10-17T08:47:33.031Z,48.10
2018-10-17T08:48:32.965Z,47.79
2018-10-17T08:49:32.925Z,48.49
2018-10-17T08:50:32.879Z,47.99
2018-10-17T08:51:32.752Z,48.49
2018-10-17T08:52:32.680Z,47.89
2018-10-17T08:53:32.622Z,48.19
2018-10-17T08:54:32.561Z,48.29
2018-10-17T08:55:32.462Z,48.29
2018-10-17T08:56:32.391Z,49.09
2018-10-17T08:57:32.359Z,48.49
2018-10-17T08:58:32.246Z,48.19
2018-10-17T08:59:32.214Z,48.69
2018-10-17T09:00:32.115Z,48.29
2018-10-17T09:01:32.049Z,48.29
2018-10-17T09:02:31.975Z,48.39
2018-10-17T09:03:31.896Z,48.27
2018-10-17T09:04:31.819Z,48.37
2018-10-17T09:05:31.772Z,48.49
2018-10-17T09:06:31.674Z,47.97
2018-10-17T09:07:31.626Z,47.77
2018-10-17T09:08:31.524Z,48.27
2018-10-17T09:09:31.446Z,47.97
2018-10-17T09:10:31.419Z,48.07
2018-10-17T09:11:31.297Z,48.17
2018-10-17T09:12:31.226Z,48.47
2018-10-17T09:13:31.278Z,47.97
2018-10-17T09:14:31.063Z,48.17
2018-10-17T09:15:31.008Z,47.75
2018-10-17T09:16:30.990Z,47.95
2018-10-17T09:17:30.824Z,47.67
2018-10-17T09:18:30.753Z,47.97
2018-10-17T09:19:30.881Z,47.97
2018-10-17T09:20:30.820Z,48.05
2018-10-17T09:21:30.663Z,47.95
2018-10-17T09:22:30.521Z,47.55
2018-10-17T09:23:30.358Z,47.45
2018-10-17T09:24:30.281Z,47.35
2018-10-17T09:25:30.262Z,47.45
2018-10-17T09:26:30.104Z,47.55
2018-10-17T09:27:30.022Z,47.75
2018-10-17T09:28:29.933Z,47.65
2018-10-17T09:29:29.848Z,47.45
2018-10-17T09:30:29.899Z,47.92
2018-10-17T09:31:29.680Z,47.53
2018-10-17T09:32:29.594Z,47.33
2018-10-17T09:33:29.518Z,47.63
2018-10-17T09:34:29.429Z,47.42
2018-10-17T09:35:29.444Z,47.13
2018-10-17T09:36:29.260Z,47.33
2018-10-17T09:37:29.178Z,47.22
2018-10-17T09:38:29.090Z,46.92
2018-10-17T09:39:29.007Z,47.33
2018-10-17T09:40:28.948Z,47.22
2018-10-17T09:41:28.838Z,46.92
2018-10-17T09:42:28.755Z,46.92
2018-10-17T09:43:28.668Z,47.03
2018-10-17T09:44:28.582Z,47.13
2018-10-17T09:45:28.526Z,46.73
2018-10-17T09:46:28.408Z,46.73
2018-10-17T09:47:28.326Z,46.53
2018-10-17T09:48:28.241Z,46.70
2018-10-17T09:49:28.162Z,46.70
2018-10-17T09:50:28.104Z,47.00
2018-10-17T09:51:28.001Z,47.00
2018-10-17T09:52:27.909Z,47.00
2018-10-17T09:53:27.900Z,46.80
2018-10-17T09:54:27.738Z,46.80
2018-10-17T09:55:27.684Z,46.48
2018-10-17T09:56:27.577Z,46.80
2018-10-17T09:57:27.495Z,46.70
2018-10-17T09:58:27.418Z,46.70
2018-10-17T09:59:27.341Z,46.70
2018-10-17T10:00:27.288Z,46.61
2018-10-17T10:01:27.183Z,46.70
2018-10-17T10:02:27.135Z,46.70
2018-10-17T10:03:27.035Z,46.91
2018-10-17T10:04:26.955Z,46.91
2018-10-17T10:05:26.903Z,46.58
2018-10-17T10:06:26.799Z,46.88
2018-10-17T10:07:26.716Z,46.68
2018-10-17T10:08:26.634Z,46.68
2018-10-17T10:09:26.551Z,46.68
2018-10-17T10:10:26.497Z,46.78
2018-10-17T10:11:26.389Z,46.58
2018-10-17T10:12:26.305Z,46.58
2018-10-17T10:13:26.221Z,46.19
2018-10-17T10:14:26.138Z,46.08
2018-10-17T10:15:26.085Z,46.38
2018-10-17T10:16:25.975Z,46.08
2018-10-17T10:17:25.905Z,46.38
2018-10-17T10:18:25.810Z,46.28
2018-10-17T10:19:25.727Z,46.16
2018-10-17T10:20:25.684Z,45.86
2018-10-17T10:21:25.566Z,46.28
2018-10-17T10:22:25.484Z,46.48
2018-10-17T10:23:25.409Z,46.46
2018-10-17T10:24:25.321Z,46.16
2018-10-17T10:25:25.402Z,46.16
2018-10-17T10:26:25.156Z,46.06
2018-10-17T10:27:25.072Z,46.06
2018-10-17T10:28:25.091Z,46.06
2018-10-17T10:29:24.908Z,46.08
2018-10-17T10:30:24.951Z,45.86
2018-10-17T10:31:24.750Z,46.06
2018-10-17T10:32:24.665Z,45.76
2018-10-17T10:33:24.574Z,46.26
2018-10-17T10:34:24.490Z,45.96
2018-10-17T10:35:24.402Z,46.06
2018-10-17T10:36:24.353Z,45.96
2018-10-17T10:37:24.239Z,45.86
2018-10-17T10:38:24.159Z,45.26
2018-10-17T10:39:24.073Z,45.47
2018-10-17T10:40:24.016Z,45.36
2018-10-17T10:41:23.943Z,45.36
2018-10-17T10:42:23.831Z,45.26
2018-10-17T10:43:23.747Z,45.26
2018-10-17T10:44:23.668Z,45.66
2018-10-17T10:45:23.605Z,45.66
2018-10-17T10:46:23.532Z,45.56
2018-10-17T10:47:23.430Z,45.66
2018-10-17T10:48:23.340Z,45.47
2018-10-17T10:49:23.255Z,45.56
2018-10-17T10:50:23.172Z,45.56
2018-10-17T10:51:23.275Z,45.56
2018-10-17T10:52:22.993Z,45.47
2018-10-17T10:53:22.903Z,45.47
2018-10-17T10:54:22.808Z,45.56
2018-10-17T10:55:22.725Z,45.47
2018-10-17T10:56:22.678Z,45.47
2018-10-17T10:57:22.561Z,45.47
2018-10-17T10:58:22.666Z,45.47
2018-10-17T10:59:22.613Z,45.47
2018-10-17T11:00:22.298Z,45.47
2018-10-17T11:01:22.232Z,45.47
2018-10-17T11:02:22.120Z,45.56
2018-10-17T11:03:22.035Z,45.47
2018-10-17T11:04:21.946Z,45.36
2018-10-17T11:05:21.907Z,45.47
2018-10-17T11:06:21.795Z,45.47
2018-10-17T11:07:21.675Z,45.26
2018-10-17T11:08:21.597Z,45.26
2018-10-17T11:09:21.500Z,45.34
2018-10-17T11:10:21.412Z,45.44
2018-10-17T11:11:21.350Z,45.44
2018-10-17T11:12:21.237Z,45.56
2018-10-17T11:13:21.155Z,45.17
2018-10-17T11:14:21.298Z,45.26
2018-10-17T11:15:21.047Z,45.56
2018-10-17T11:16:20.913Z,45.34
2018-10-17T11:17:20.794Z,45.66
2018-10-17T11:18:20.703Z,45.66
2018-10-17T11:19:20.621Z,45.36
2018-10-17T11:20:20.537Z,45.17
2018-10-17T11:21:20.483Z,45.17
2018-10-17T11:22:20.369Z,44.65
2018-10-17T11:23:20.420Z,44.65
2018-10-17T11:24:20.200Z,44.54
2018-10-17T11:25:20.114Z,45.14
2018-10-17T11:26:20.054Z,45.36
2018-10-17T11:27:19.942Z,45.04
2018-10-17T11:28:19.858Z,44.65
2018-10-17T11:29:19.850Z,44.54
2018-10-17T11:30:19.686Z,44.65
2018-10-17T11:31:19.640Z,44.65
2018-10-17T11:32:19.509Z,44.74
2018-10-17T11:33:19.549Z,44.54
2018-10-17T11:34:19.322Z,44.84
2018-10-17T11:35:19.315Z,44.65
2018-10-17T11:36:19.167Z,44.67
2018-10-17T11:37:19.095Z,44.65
2018-10-17T11:38:18.959Z,44.96
2018-10-17T11:39:18.869Z,44.65
2018-10-17T11:40:18.785Z,44.87
2018-10-17T11:41:18.870Z,44.84
2018-10-17T11:42:18.604Z,44.54
2018-10-17T11:43:18.513Z,45.36
2018-10-17T11:44:18.416Z,45.44
2018-10-17T11:45:18.446Z,45.36
2018-10-17T11:46:18.259Z,45.24
2018-10-17T11:47:18.146Z,45.44
2018-10-17T11:48:18.060Z,45.56
2018-10-17T11:49:17.973Z,45.34
2018-10-17T11:50:17.888Z,45.47
2018-10-17T11:51:17.906Z,45.14
2018-10-17T11:52:17.710Z,45.54
2018-10-17T11:53:17.681Z,45.14
2018-10-17T11:54:17.540Z,45.24
2018-10-17T11:55:17.451Z,45.26
2018-10-17T11:56:17.388Z,45.17
2018-10-17T11:57:17.314Z,44.74
2018-10-17T11:58:17.195Z,45.17
2018-10-17T11:59:17.176Z,45.47
2018-10-17T12:00:17.030Z,45.44
2018-10-17T12:01:16.971Z,45.17
2018-10-17T12:02:16.861Z,45.47
2018-10-17T12:03:16.878Z,45.56
2018-10-17T12:04:17.199Z,45.56
2018-10-17T12:05:16.897Z,45.24
2018-10-17T12:06:16.683Z,45.14
2018-10-17T12:07:16.436Z,45.84
2018-10-17T12:08:16.365Z,45.04
2018-10-17T12:09:16.326Z,45.34
2018-10-17T12:10:16.174Z,45.66
2018-10-17T12:11:16.147Z,45.47
2018-10-17T12:12:16.015Z,45.66
2018-10-17T12:13:15.926Z,45.44
2018-10-17T12:14:15.843Z,45.56
2018-10-17T12:15:15.798Z,45.54
2018-10-17T12:16:15.713Z,45.26
2018-10-17T12:17:15.601Z,45.44
2018-10-17T12:18:15.625Z,45.34
2018-10-17T12:19:15.498Z,45.44
2018-10-17T12:20:15.352Z,45.56
2018-10-17T12:21:15.360Z,45.54
2018-10-17T12:22:15.179Z,45.34
2018-10-17T12:23:15.092Z,45.56
2018-10-17T12:24:15.120Z,45.44
2018-10-17T12:25:14.934Z,45.47
2018-10-17T12:26:14.847Z,45.47
2018-10-17T12:27:14.899Z,45.24
2018-10-17T12:28:14.801Z,45.26
2018-10-17T12:29:14.581Z,45.54
2018-10-17T12:30:14.607Z,45.34
2018-10-17T12:31:14.406Z,44.76
2018-10-17T12:32:14.340Z,45.06
2018-10-17T12:33:14.297Z,45.04
2018-10-17T12:34:14.142Z,44.87
2018-10-17T12:35:14.100Z,44.94
2018-10-17T12:36:13.983Z,44.87
2018-10-17T12:37:13.912Z,45.04
2018-10-17T12:38:13.803Z,44.94
2018-10-17T12:39:13.764Z,45.06
2018-10-17T12:40:13.777Z,44.87
2018-10-17T12:41:13.665Z,45.04
2018-10-17T12:42:13.479Z,44.84
2018-10-17T12:43:13.370Z,45.14
2018-10-17T12:44:13.358Z,45.44
2018-10-17T12:45:13.281Z,45.24
2018-10-17T12:46:13.122Z,45.24
2018-10-17T12:47:13.160Z,45.47
2018-10-17T12:48:12.941Z,44.84
2018-10-17T12:49:12.949Z,45.36
2018-10-17T12:50:12.848Z,45.14
2018-10-17T12:51:12.683Z,45.04
2018-10-17T12:52:12.713Z,44.84
2018-10-17T12:53:12.580Z,44.87
2018-10-17T12:54:12.433Z,44.76
2018-10-17T12:55:12.362Z,45.06
2018-10-17T12:56:12.281Z,45.26
2018-10-17T12:57:12.208Z,45.44
2018-10-17T12:58:12.093Z,45.24
2018-10-17T12:59:12.091Z,44.84
2018-10-17T13:00:11.915Z,45.04
2018-10-17T13:01:11.951Z,44.87
2018-10-17T13:02:11.881Z,44.96
2018-10-17T13:03:11.653Z,44.94
2018-10-17T13:04:11.601Z,44.96
2018-10-17T13:05:11.505Z,44.76
2018-10-17T13:06:11.378Z,45.24
2018-10-17T13:07:11.451Z,45.47
2018-10-17T13:08:11.214Z,44.76
2018-10-17T13:09:11.116Z,45.24
2018-10-17T13:10:11.026Z,45.26
2018-10-17T13:11:11.063Z,44.94
2018-10-17T13:12:10.873Z,44.67
2018-10-17T13:13:10.951Z,45.36
2018-10-17T13:14:10.678Z,45.54
2018-10-17T13:15:10.678Z,45.47
2018-10-17T13:16:10.519Z,45.36
2018-10-17T13:17:10.579Z,44.57
2018-10-17T13:18:10.345Z,45.06
2018-10-17T13:19:10.352Z,44.96
2018-10-17T13:20:10.168Z,45.14
2018-10-17T13:21:10.081Z,45.14
2018-10-17T13:22:10.029Z,44.57
2018-10-17T13:23:09.930Z,44.65
2018-10-17T13:24:09.830Z,45.54
2018-10-17T13:25:09.823Z,45.56
2018-10-17T13:26:09.674Z,45.14
2018-10-17T13:27:09.630Z,45.34
2018-10-17T13:28:09.509Z,45.64
2018-10-17T13:29:09.528Z,45.36
2018-10-17T13:30:09.420Z,45.17
2018-10-17T13:31:09.255Z,44.65
2018-10-17T13:32:09.269Z,44.84
2018-10-17T13:33:09.081Z,44.65
2018-10-17T13:34:09.083Z,44.84
2018-10-17T13:35:09.076Z,44.67
2018-10-17T13:36:08.836Z,44.67
2018-10-17T13:37:08.864Z,44.96
2018-10-17T13:38:08.672Z,44.87
2018-10-17T13:39:08.592Z,44.84
2018-10-17T13:40:08.590Z,44.67
2018-10-17T13:41:08.505Z,44.84
2018-10-17T13:42:08.503Z,44.96
2018-10-17T13:43:08.317Z,44.94
2018-10-17T13:44:08.192Z,44.84
2018-10-17T13:45:08.098Z,44.84
2018-10-17T13:46:08.019Z,44.84
2018-10-17T13:47:08.052Z,44.74
2018-10-17T13:48:07.896Z,45.04
2018-10-17T13:49:07.887Z,44.65
2018-10-17T13:50:07.682Z,45.14
2018-10-17T13:51:07.599Z,44.65
2018-10-17T13:52:07.538Z,44.65
2018-10-17T13:53:07.512Z,45.14
2018-10-17T13:54:07.343Z,44.94
2018-10-17T13:55:07.333Z,44.74
2018-10-17T13:56:07.201Z,44.84
2018-10-17T13:57:07.117Z,44.94
2018-10-17T13:58:07.073Z,44.74
2018-10-17T13:59:06.987Z,44.94
2018-10-17T14:00:06.900Z,45.04
2018-10-17T14:01:06.869Z,45.04
2018-10-17T14:02:06.698Z,44.74
2018-10-17T14:03:06.585Z,44.94
2018-10-17T14:04:06.572Z,44.94
2018-10-17T14:05:06.423Z,45.04
2018-10-17T14:06:06.358Z,44.94
2018-10-17T14:07:06.332Z,45.04
2018-10-17T14:08:06.166Z,44.94
2018-10-17T14:09:06.152Z,45.04
2018-10-17T14:10:05.997Z,44.94
2018-10-17T14:11:08.372Z,44.84
2018-10-17T14:12:08.479Z,44.94
2018-10-17T14:13:08.494Z,44.94
2018-10-17T14:14:08.488Z,44.84
2018-10-17T14:15:06.633Z,44.84
2018-10-17T14:16:05.849Z,45.04
2018-10-17T14:17:05.612Z,45.24
2018-10-17T14:18:05.741Z,45.14
2018-10-17T14:19:05.731Z,44.94
2018-10-17T14:20:05.189Z,45.34
2018-10-17T14:21:05.145Z,44.84
2018-10-17T14:22:07.758Z,45.24
2018-10-17T14:23:05.595Z,45.14
2018-10-17T14:24:05.878Z,45.34
2018-10-17T14:25:04.869Z,45.44
2018-10-17T14:26:04.720Z,45.14
2018-10-17T14:27:05.992Z,45.24
2018-10-17T14:28:04.645Z,45.24
2018-10-17T14:29:07.020Z,45.04
2018-10-17T14:30:07.054Z,45.04
2018-10-17T14:31:07.060Z,45.04
2018-10-17T14:32:07.074Z,45.04
2018-10-17T14:33:07.169Z,45.24
2018-10-17T14:34:04.060Z,45.04
2018-10-17T14:35:03.981Z,44.84
2018-10-17T14:36:03.992Z,44.84
2018-10-17T14:37:06.204Z,44.74
2018-10-17T14:38:09.238Z,44.84
2018-10-17T14:39:03.658Z,44.87
2018-10-17T14:40:03.588Z,45.14
2018-10-17T14:41:03.565Z,45.14
2018-10-17T14:42:03.400Z,44.84
2018-10-17T14:43:03.717Z,44.84
2018-10-17T14:44:03.203Z,44.84
2018-10-17T14:45:05.365Z,44.65
2018-10-17T14:46:04.949Z,45.14
2018-10-17T14:47:05.291Z,44.84
2018-10-17T14:48:05.419Z,45.14
2018-10-17T14:49:03.396Z,44.84
2018-10-17T14:50:02.807Z,44.54
2018-10-17T14:51:03.169Z,45.14
2018-10-17T14:52:05.514Z,44.65
2018-10-17T14:53:04.649Z,44.54
2018-10-17T14:54:05.554Z,45.24
2018-10-17T14:55:03.225Z,45.24
2018-10-17T14:56:02.232Z,44.65
2018-10-17T14:57:04.639Z,44.84
2018-10-17T14:58:04.704Z,45.54
2018-10-17T14:59:01.973Z,45.54
2018-10-17T15:00:04.680Z,44.65
2018-10-17T15:01:04.731Z,45.04
2018-10-17T15:02:03.750Z,45.54
2018-10-17T15:03:04.884Z,45.24
2018-10-17T15:04:03.790Z,45.24
2018-10-17T15:05:03.836Z,45.34
2018-10-17T15:06:01.695Z,45.04
2018-10-17T15:07:01.225Z,45.14
2018-10-17T15:08:04.766Z,44.84
2018-10-17T15:09:01.127Z,45.04
2018-10-17T15:10:02.039Z,45.14
2018-10-17T15:11:01.056Z,45.24
2018-10-17T15:12:02.710Z,45.24
2018-10-17T15:13:00.700Z,45.44
2018-10-17T15:14:02.892Z,45.54
2018-10-17T15:15:00.534Z,45.24
2018-10-17T15:16:01.140Z,45.44
2018-10-17T15:17:03.096Z,45.54
2018-10-17T15:18:03.065Z,45.54
2018-10-17T15:19:02.980Z,45.34
2018-10-17T15:20:02.998Z,45.14
2018-10-17T15:21:02.057Z,45.34
2018-10-17T15:22:02.033Z,44.94
2018-10-17T15:23:02.094Z,44.65
2018-10-17T15:24:02.116Z,45.34
2018-10-17T15:24:59.638Z,45.44
2018-10-17T15:25:59.528Z,45.44
2018-10-17T15:26:59.525Z,45.94
2018-10-17T15:28:00.352Z,45.84
2018-10-17T15:28:59.338Z,45.44
2018-10-17T15:30:01.285Z,45.44
2018-10-17T15:31:01.323Z,45.54
2018-10-17T15:32:01.361Z,45.44
2018-10-17T15:32:59.002Z,45.44
2018-10-17T15:33:58.918Z,45.44
2018-10-17T15:35:01.378Z,45.44
2018-10-17T15:36:00.432Z,45.44
2018-10-17T15:37:01.601Z,45.44
2018-10-17T15:38:03.390Z,45.44
2018-10-17T15:39:00.548Z,45.24
2018-10-17T15:39:59.567Z,45.34
2018-10-17T15:40:58.293Z,45.17
2018-10-17T15:41:58.304Z,45.54
2018-10-17T15:42:58.176Z,45.54
2018-10-17T15:43:58.048Z,45.44
2018-10-17T15:45:00.632Z,45.36
2018-10-17T15:46:00.635Z,45.34
2018-10-17T15:47:00.658Z,45.64
2018-10-17T15:48:00.744Z,45.14
2018-10-17T15:48:59.688Z,45.74
2018-10-17T15:49:57.560Z,45.24
2018-10-17T15:50:59.714Z,45.14
2018-10-17T15:51:59.722Z,45.64
2018-10-17T15:52:59.794Z,45.14
2018-10-17T15:53:59.869Z,45.84
2018-10-17T15:54:59.799Z,45.34
2018-10-17T15:55:57.079Z,46.14
2018-10-17T15:56:59.836Z,46.24
2018-10-17T15:57:57.538Z,46.34
2018-10-17T15:58:58.941Z,46.24
2018-10-17T15:59:58.975Z,46.26
2018-10-17T16:00:56.708Z,46.26
2018-10-17T16:01:56.594Z,46.46
2018-10-17T16:02:56.487Z,46.36
2018-10-17T16:03:56.416Z,46.36
2018-10-17T16:04:56.311Z,46.46
2018-10-17T16:05:56.227Z,46.16
2018-10-17T16:06:56.146Z,46.24
2018-10-17T16:07:56.102Z,46.24
2018-10-17T16:08:55.993Z,46.14
2018-10-17T16:09:55.885Z,46.16
2018-10-17T16:10:55.807Z,46.54
2018-10-17T16:11:55.793Z,46.14
2018-10-17T16:12:55.645Z,46.24
2018-10-17T16:13:55.599Z,46.04
2018-10-17T16:14:55.475Z,46.16
2018-10-17T16:15:55.390Z,46.26
2018-10-17T16:16:55.348Z,46.16
2018-10-17T16:17:55.245Z,46.16
2018-10-17T16:18:55.168Z,46.16
2018-10-17T16:19:55.070Z,46.24
2018-10-17T16:20:54.973Z,46.86
2018-10-17T16:21:54.890Z,46.36
2018-10-17T16:22:54.950Z,46.66
2018-10-17T16:23:54.804Z,46.86
2018-10-17T16:24:54.653Z,46.66
2018-10-17T16:25:54.630Z,46.46
2018-10-17T16:26:54.489Z,46.66
2018-10-17T16:27:54.404Z,46.26
2018-10-17T16:28:54.345Z,46.26
2018-10-17T16:29:54.267Z,46.26
2018-10-17T16:30:54.211Z,46.94
2018-10-17T16:31:54.076Z,46.86
2018-10-17T16:32:53.990Z,46.76
2018-10-17T16:33:53.937Z,46.66
2018-10-17T16:34:53.837Z,46.46
2018-10-17T16:35:53.827Z,47.06
2018-10-17T16:36:53.680Z,46.76
2018-10-17T16:37:53.649Z,46.96
2018-10-17T16:38:53.534Z,46.84
2018-10-17T16:39:53.424Z,47.45
2018-10-17T16:40:53.398Z,47.45
2018-10-17T16:41:53.310Z,47.36
2018-10-17T16:42:53.185Z,47.26
2018-10-17T16:43:53.129Z,47.33
2018-10-17T16:44:53.019Z,47.33
2018-10-17T16:45:52.939Z,47.36
2018-10-17T16:46:52.853Z,47.33
2018-10-17T16:47:52.815Z,47.33
2018-10-17T16:48:52.711Z,47.44
2018-10-17T16:49:52.753Z,47.06
2018-10-17T16:50:52.539Z,47.06
2018-10-17T16:51:52.413Z,47.03
2018-10-17T16:52:52.330Z,47.03
2018-10-17T16:53:52.849Z,47.16
2018-10-17T16:54:52.148Z,47.03
2018-10-17T16:55:52.066Z,46.96
2018-10-17T16:56:52.013Z,46.84
2018-10-17T16:57:51.906Z,46.73
2018-10-17T16:58:51.840Z,47.03
2018-10-17T16:59:51.725Z,46.86
2018-10-17T17:00:51.639Z,46.96
2018-10-17T17:01:51.548Z,46.84
2018-10-17T17:02:51.461Z,47.24
2018-10-17T17:03:51.389Z,46.86
2018-10-17T17:04:51.273Z,47.36
2018-10-17T17:05:51.211Z,47.86
2018-10-17T17:06:51.085Z,47.96
2018-10-17T17:07:50.994Z,47.83
2018-10-17T17:08:50.923Z,47.26
2018-10-17T17:09:50.807Z,47.63
2018-10-17T17:10:50.717Z,47.06
2018-10-17T17:11:50.619Z,47.45
2018-10-17T17:12:50.524Z,47.36
2018-10-17T17:13:50.456Z,47.03
2018-10-17T17:14:50.336Z,47.26
2018-10-17T17:15:50.240Z,47.26
2018-10-17T17:16:50.144Z,47.06
2018-10-17T17:17:50.057Z,46.86
2018-10-17T17:18:50.059Z,46.86
2018-10-17T17:19:49.880Z,47.24
2018-10-17T17:20:49.791Z,47.16
2018-10-17T17:21:49.707Z,47.16
2018-10-17T17:22:49.735Z,46.96
2018-10-17T17:23:49.549Z,46.84
2018-10-17T17:24:49.431Z,47.03
2018-10-17T17:25:49.341Z,46.94
2018-10-17T17:26:49.250Z,47.06
2018-10-17T17:27:49.167Z,47.06
2018-10-17T17:28:50.876Z,46.84
2018-10-17T17:29:49.068Z,46.73
2018-10-17T17:30:48.911Z,46.54
2018-10-17T17:31:48.820Z,46.64
2018-10-17T17:32:48.722Z,46.64
2018-10-17T17:33:48.648Z,46.64
2018-10-17T17:34:48.557Z,46.34
2018-10-17T17:35:48.436Z,46.34
2018-10-17T17:36:48.347Z,46.73
2018-10-17T17:37:48.257Z,46.44
2018-10-17T17:38:48.165Z,46.86
2018-10-17T17:39:48.101Z,46.54
2018-10-17T17:40:47.984Z,46.64
2018-10-17T17:41:47.888Z,46.96
2018-10-17T17:42:47.795Z,46.94
2018-10-17T17:43:47.689Z,47.03
2018-10-17T17:44:47.617Z,46.44
2018-10-17T17:45:47.490Z,46.94
2018-10-17T17:46:47.457Z,46.94
2018-10-17T17:47:47.289Z,46.84
2018-10-17T17:48:47.195Z,46.73
2018-10-17T17:49:47.129Z,46.73
2018-10-17T17:50:47.011Z,46.54
2018-10-17T17:51:47.038Z,46.73
2018-10-17T17:52:46.836Z,46.44
2018-10-17T17:53:46.749Z,46.64
2018-10-17T17:54:46.689Z,46.44
2018-10-17T17:55:46.628Z,46.44
2018-10-17T17:56:46.465Z,46.54
2018-10-17T17:57:46.415Z,46.73
2018-10-17T17:58:46.499Z,46.64
2018-10-17T17:59:46.220Z,46.44
2018-10-17T18:00:46.104Z,46.73
2018-10-17T18:01:46.016Z,46.34
2018-10-17T18:02:45.926Z,46.34
2018-10-17T18:03:45.839Z,46.94
2018-10-17T18:04:45.773Z,46.54
2018-10-17T18:05:45.653Z,46.84
2018-10-17T18:06:45.586Z,46.64
2018-10-17T18:07:45.473Z,46.14
2018-10-17T18:08:45.385Z,46.14
2018-10-17T18:09:45.317Z,46.44
2018-10-17T18:10:45.197Z,46.54
2018-10-17T18:11:45.105Z,46.66
2018-10-17T18:12:45.010Z,46.54
2018-10-17T18:13:44.921Z,46.64
2018-10-17T18:14:44.852Z,46.73
2018-10-17T18:15:44.733Z,46.54
2018-10-17T18:16:44.640Z,46.73
2018-10-17T18:17:44.554Z,46.24
2018-10-17T18:18:44.462Z,46.14
2018-10-17T18:19:44.391Z,46.34
2018-10-17T18:20:44.274Z,46.04
2018-10-17T18:21:44.200Z,46.24
2018-10-17T18:22:44.093Z,46.14
2018-10-17T18:23:43.998Z,46.24
2018-10-17T18:24:43.947Z,46.24
2018-10-17T18:25:43.824Z,46.24
2018-10-17T18:26:43.733Z,46.34
2018-10-17T18:27:43.672Z,46.04
2018-10-17T18:28:43.555Z,46.14
2018-10-17T18:29:43.499Z,46.14
2018-10-17T18:30:43.388Z,46.24
2018-10-17T18:31:43.303Z,46.24
2018-10-17T18:32:43.214Z,46.14
2018-10-17T18:33:43.133Z,46.34
2018-10-17T18:34:43.062Z,46.24
2018-10-17T18:35:42.945Z,46.14
2018-10-17T18:36:42.857Z,46.34
2018-10-17T18:37:42.775Z,45.84
2018-10-17T18:38:42.694Z,45.84
2018-10-17T18:39:42.635Z,46.34
2018-10-17T18:40:42.592Z,45.94
2018-10-17T18:41:42.435Z,46.04
2018-10-17T18:42:42.347Z,46.34
2018-10-17T18:43:42.258Z,46.36
2018-10-17T18:44:42.190Z,46.06
2018-10-17T18:45:42.145Z,46.04
2018-10-17T18:46:41.985Z,46.44
2018-10-17T18:47:41.950Z,46.34
2018-10-17T18:48:41.828Z,46.04
2018-10-17T18:49:41.758Z,46.44
2018-10-17T18:50:41.646Z,45.94
2018-10-17T18:51:41.558Z,46.34
2018-10-17T18:52:41.476Z,46.16
2018-10-17T18:53:41.383Z,46.46
2018-10-17T18:54:41.325Z,46.24
2018-10-17T18:55:41.265Z,46.14
2018-10-17T18:56:41.118Z,46.04
2018-10-17T18:57:41.032Z,46.14
2018-10-17T18:58:40.938Z,46.06
2018-10-17T18:59:40.871Z,46.14
2018-10-17T19:00:40.757Z,46.04
2018-10-17T19:01:40.768Z,45.84
2018-10-17T19:02:40.572Z,45.86
2018-10-17T19:03:40.494Z,46.14
2018-10-17T19:04:40.419Z,45.84
2018-10-17T19:05:40.299Z,45.84
2018-10-17T19:06:40.212Z,45.96
2018-10-17T19:07:40.128Z,45.96
2018-10-17T19:08:40.037Z,46.06
2018-10-17T19:09:39.993Z,46.06
2018-10-17T19:10:39.866Z,45.96
2018-10-17T19:11:39.783Z,45.94
2018-10-17T19:12:39.705Z,46.14
2018-10-17T19:13:39.625Z,45.96
2018-10-17T19:14:39.533Z,45.17
2018-10-17T19:15:39.474Z,45.96
2018-10-17T19:16:39.405Z,45.96
2018-10-17T19:17:39.268Z,46.06
2018-10-17T19:18:39.183Z,45.94
2018-10-17T19:19:39.092Z,45.17
2018-10-17T19:20:39.055Z,46.06
2018-10-17T19:21:38.924Z,45.36
2018-10-17T19:22:38.856Z,45.96
2018-10-17T19:23:38.756Z,45.84
2018-10-17T19:24:38.712Z,45.96
2018-10-17T19:25:38.602Z,46.06
2018-10-17T19:26:38.490Z,46.06
2018-10-17T19:27:38.410Z,45.96
2018-10-17T19:28:38.328Z,45.94
2018-10-17T19:29:38.245Z,46.04
2018-10-17T19:30:38.182Z,45.96
2018-10-17T19:31:38.077Z,45.96
2018-10-17T19:32:37.999Z,45.86
2018-10-17T19:33:37.919Z,45.86
2018-10-17T19:34:37.840Z,46.06
2018-10-17T19:35:37.781Z,45.96
2018-10-17T19:36:37.668Z,46.06
2018-10-17T19:37:37.578Z,45.96
2018-10-17T19:38:37.492Z,46.06
2018-10-17T19:39:37.406Z,46.06
2018-10-17T19:40:37.347Z,46.36
2018-10-17T19:41:37.235Z,46.16
2018-10-17T19:42:37.147Z,46.06
2018-10-17T19:43:37.062Z,46.06
2018-10-17T19:44:36.978Z,46.16
2018-10-17T19:45:36.917Z,46.06
2018-10-17T19:46:36.805Z,46.06
2018-10-17T19:47:36.749Z,45.96
2018-10-17T19:48:36.646Z,46.06
2018-10-17T19:49:36.566Z,46.16
2018-10-17T19:50:36.513Z,46.06
2018-10-17T19:51:36.402Z,45.86
2018-10-17T19:52:36.328Z,46.16
2018-10-17T19:53:36.239Z,46.26
2018-10-17T19:54:36.156Z,46.26
2018-10-17T19:55:36.103Z,46.16
2018-10-17T19:56:35.992Z,46.06
2018-10-17T19:57:35.909Z,45.86
2018-10-17T19:58:35.822Z,46.16
2018-10-17T19:59:35.741Z,46.06
2018-10-17T20:00:35.687Z,45.96
2018-10-17T20:01:35.575Z,46.16
2018-10-17T20:02:35.493Z,46.26
2018-10-17T20:03:35.419Z,45.86
2018-10-17T20:04:35.343Z,45.96
2018-10-17T20:05:35.283Z,45.96
2018-10-17T20:06:35.173Z,46.06
2018-10-17T20:07:35.112Z,46.06
2018-10-17T20:08:35.005Z,45.86
2018-10-17T20:09:34.919Z,46.06
2018-10-17T20:10:34.854Z,46.26
2018-10-17T20:11:34.747Z,46.06
2018-10-17T20:12:34.661Z,45.86
2018-10-17T20:13:34.580Z,46.56
2018-10-17T20:14:34.497Z,46.66
2018-10-17T20:15:34.437Z,46.66
2018-10-17T20:16:34.322Z,46.36
2018-10-17T20:17:34.236Z,46.46
2018-10-17T20:18:34.149Z,46.56
2018-10-17T20:19:34.073Z,46.16
2018-10-17T20:20:34.132Z,46.16
2018-10-17T20:21:33.901Z,46.26
2018-10-17T20:22:33.817Z,46.16
2018-10-17T20:23:33.736Z,46.04
2018-10-17T20:24:33.668Z,46.16
2018-10-17T20:25:33.594Z,46.06
2018-10-17T20:26:33.468Z,46.16
2018-10-17T20:27:33.381Z,46.16
2018-10-17T20:28:33.297Z,46.16
2018-10-17T20:29:33.210Z,46.36
2018-10-17T20:30:33.152Z,46.26
2018-10-17T20:31:33.049Z,46.26
2018-10-17T20:32:32.965Z,46.26
2018-10-17T20:33:32.884Z,46.26
2018-10-17T20:34:32.801Z,46.16
2018-10-17T20:35:32.748Z,46.16
2018-10-17T20:36:32.639Z,46.16
2018-10-17T20:37:32.553Z,46.26
2018-10-17T20:38:32.477Z,46.16
2018-10-17T20:39:32.386Z,46.76
2018-10-17T20:40:32.328Z,46.46
2018-10-17T20:41:32.212Z,46.06
2018-10-17T20:42:32.133Z,46.36
2018-10-17T20:43:32.047Z,46.16
2018-10-17T20:44:31.965Z,46.06
2018-10-17T20:45:31.908Z,46.26
2018-10-17T20:46:31.802Z,46.26
2018-10-17T20:47:31.714Z,46.06
2018-10-17T20:48:31.627Z,46.16
2018-10-17T20:49:31.545Z,46.16
2018-10-17T20:50:31.458Z,46.56
2018-10-17T20:51:31.395Z,46.16
2018-10-17T20:52:31.473Z,46.56
2018-10-17T20:53:31.197Z,46.26
2018-10-17T20:54:31.114Z,46.56
2018-10-17T20:55:31.024Z,46.66
2018-10-17T20:56:30.965Z,46.56
2018-10-17T20:57:30.850Z,46.76
2018-10-17T20:58:30.765Z,46.76
2018-10-17T20:59:30.673Z,46.76
2018-10-17T21:00:30.591Z,46.56
2018-10-17T21:01:30.532Z,46.86
2018-10-17T21:02:30.422Z,46.56
2018-10-17T21:03:30.330Z,46.96
2018-10-17T21:04:30.249Z,46.66
2018-10-17T21:05:30.158Z,46.66
2018-10-17T21:06:30.094Z,46.86
2018-10-17T21:07:29.986Z,46.86
2018-10-17T21:08:29.901Z,46.66
